sensor_id;sensor_type;location;lat;lon;timestamp;temperature;humidity
24338;DHT22;12457;50.832;4.346;2023-11-21T00:00:31;10.50;99.90
24338;DHT22;12457;50.832;4.346;2023-11-21T00:02:56;10.50;99.90
24338;DHT22;12457;50.832;4.346;2023-11-21T00:05:23;10.60;99.90
24338;DHT22;12457;50.832;4.346;2023-11-21T00:07:49;10.60;99.90
24338;DHT22;12457;50.832;4.346;2023-11-21T00:10:15;10.50;99.90
24338;DHT22;12457;50.832;4.346;2023-11-21T00:12:41;10.40;99.90
24338;DHT22;12457;50.832;4.346;2023-11-21T00:15:08;10.40;99.90
24338;DHT22;12457;50.832;4.346;2023-11-21T00:17:37;10.30;99.90
24338;DHT22;12457;50.832;4.346;2023-11-21T00:20:07;10.20;99.90
24338;DHT22;12457;50.832;4.346;2023-11-21T00:22:34;10.10;99.90
24338;DHT22;12457;50.832;4.346;2023-11-21T00:25:00;10.10;99.90
24338;DHT22;12457;50.832;4.346;2023-11-21T00:27:26;10.00;99.90
24338;DHT22;12457;50.832;4.346;2023-11-21T00:29:51;10.00;99.90
24338;DHT22;12457;50.832;4.346;2023-11-21T00:32:18;10.10;99.90
24338;DHT22;12457;50.832;4.346;2023-11-21T00:34:45;10.10;99.90
24338;DHT22;12457;50.832;4.346;2023-11-21T00:37:11;10.10;99.90
24338;DHT22;12457;50.832;4.346;2023-11-21T00:39:37;10.10;99.90
24338;DHT22;12457;50.832;4.346;2023-11-21T00:42:03;10.10;99.90
24338;DHT22;12457;50.832;4.346;2023-11-21T00:44:30;10.10;99.90
24338;DHT22;12457;50.832;4.346;2023-11-21T00:46:56;10.10;99.90
24338;DHT22;12457;50.832;4.346;2023-11-21T00:52:34;10.00;99.90
24338;DHT22;12457;50.832;4.346;2023-11-21T00:55:01;10.00;99.90
24338;DHT22;12457;50.832;4.346;2023-11-21T00:57:30;10.00;99.90
24338;DHT22;12457;50.832;4.346;2023-11-21T00:59:55;9.90;99.90
24338;DHT22;12457;50.832;4.346;2023-11-21T01:02:21;9.90;99.90
24338;DHT22;12457;50.832;4.346;2023-11-21T01:04:47;9.90;99.90
24338;DHT22;12457;50.832;4.346;2023-11-21T01:07:13;10.00;99.90
24338;DHT22;12457;50.832;4.346;2023-11-21T01:09:39;10.00;99.90
24338;DHT22;12457;50.832;4.346;2023-11-21T01:12:05;9.90;99.90
24338;DHT22;12457;50.832;4.346;2023-11-21T01:14:30;9.90;99.90
24338;DHT22;12457;50.832;4.346;2023-11-21T01:16:56;10.00;99.90
24338;DHT22;12457;50.832;4.346;2023-11-21T01:19:22;10.00;99.90
24338;DHT22;12457;50.832;4.346;2023-11-21T01:21:47;10.10;99.90
24338;DHT22;12457;50.832;4.346;2023-11-21T01:24:13;10.10;99.90
24338;DHT22;12457;50.832;4.346;2023-11-21T01:26:39;10.20;99.90
24338;DHT22;12457;50.832;4.346;2023-11-21T01:29:06;10.20;99.90
24338;DHT22;12457;50.832;4.346;2023-11-21T01:31:32;10.10;99.90
24338;DHT22;12457;50.832;4.346;2023-11-21T01:33:57;10.20;99.90
24338;DHT22;12457;50.832;4.346;2023-11-21T01:36:32;10.20;99.90
24338;DHT22;12457;50.832;4.346;2023-11-21T01:39:00;10.20;99.90
24338;DHT22;12457;50.832;4.346;2023-11-21T01:41:27;10.10;99.90
24338;DHT22;12457;50.832;4.346;2023-11-21T01:43:55;10.10;99.90
24338;DHT22;12457;50.832;4.346;2023-11-21T01:46:22;10.10;99.90
24338;DHT22;12457;50.832;4.346;2023-11-21T01:48:48;10.20;99.90
24338;DHT22;12457;50.832;4.346;2023-11-21T01:51:19;10.30;99.90
24338;DHT22;12457;50.832;4.346;2023-11-21T01:53:46;10.30;99.90
24338;DHT22;12457;50.832;4.346;2023-11-21T01:56:13;10.30;99.90
24338;DHT22;12457;50.832;4.346;2023-11-21T01:58:40;10.40;99.90
24338;DHT22;12457;50.832;4.346;2023-11-21T02:01:07;10.40;99.90
24338;DHT22;12457;50.832;4.346;2023-11-21T02:03:34;10.40;99.90
24338;DHT22;12457;50.832;4.346;2023-11-21T02:06:00;10.30;99.90
24338;DHT22;12457;50.832;4.346;2023-11-21T02:08:26;10.30;99.90
24338;DHT22;12457;50.832;4.346;2023-11-21T02:10:52;10.30;99.90
24338;DHT22;12457;50.832;4.346;2023-11-21T02:13:18;10.30;99.90
24338;DHT22;12457;50.832;4.346;2023-11-21T02:15:43;10.20;99.90
24338;DHT22;12457;50.832;4.346;2023-11-21T02:18:11;10.30;99.90
24338;DHT22;12457;50.832;4.346;2023-11-21T02:20:55;10.30;99.90
24338;DHT22;12457;50.832;4.346;2023-11-21T02:23:21;10.20;99.90
24338;DHT22;12457;50.832;4.346;2023-11-21T02:25:48;10.20;99.90
24338;DHT22;12457;50.832;4.346;2023-11-21T02:28:14;10.20;99.90
24338;DHT22;12457;50.832;4.346;2023-11-21T02:30:42;10.30;99.90
24338;DHT22;12457;50.832;4.346;2023-11-21T02:33:09;10.40;99.90
24338;DHT22;12457;50.832;4.346;2023-11-21T02:35:34;10.40;99.90
24338;DHT22;12457;50.832;4.346;2023-11-21T02:38:00;10.30;99.90
24338;DHT22;12457;50.832;4.346;2023-11-21T02:40:26;10.30;99.90
24338;DHT22;12457;50.832;4.346;2023-11-21T02:42:52;10.20;99.90
24338;DHT22;12457;50.832;4.346;2023-11-21T02:45:19;10.20;99.90
24338;DHT22;12457;50.832;4.346;2023-11-21T02:47:47;10.20;99.90
24338;DHT22;12457;50.832;4.346;2023-11-21T02:50:14;10.10;99.90
24338;DHT22;12457;50.832;4.346;2023-11-21T02:52:40;10.10;99.90
24338;DHT22;12457;50.832;4.346;2023-11-21T02:55:06;10.10;99.90
24338;DHT22;12457;50.832;4.346;2023-11-21T02:57:35;10.10;99.90
24338;DHT22;12457;50.832;4.346;2023-11-21T03:00:02;10.10;99.90
24338;DHT22;12457;50.832;4.346;2023-11-21T03:02:28;10.10;99.90
24338;DHT22;12457;50.832;4.346;2023-11-21T03:04:54;10.20;99.90
24338;DHT22;12457;50.832;4.346;2023-11-21T03:07:19;10.10;99.90
24338;DHT22;12457;50.832;4.346;2023-11-21T03:09:45;10.30;99.90
24338;DHT22;12457;50.832;4.346;2023-11-21T03:12:11;10.30;99.90
24338;DHT22;12457;50.832;4.346;2023-11-21T03:14:41;10.30;99.90
24338;DHT22;12457;50.832;4.346;2023-11-21T03:17:07;10.30;99.90
24338;DHT22;12457;50.832;4.346;2023-11-21T03:19:33;10.20;99.90
24338;DHT22;12457;50.832;4.346;2023-11-21T03:21:58;10.20;99.90
24338;DHT22;12457;50.832;4.346;2023-11-21T03:24:25;10.20;99.90
24338;DHT22;12457;50.832;4.346;2023-11-21T03:26:51;10.20;99.90
24338;DHT22;12457;50.832;4.346;2023-11-21T03:29:18;10.10;99.90
24338;DHT22;12457;50.832;4.346;2023-11-21T03:31:44;10.10;99.90
24338;DHT22;12457;50.832;4.346;2023-11-21T03:34:23;10.10;99.90
24338;DHT22;12457;50.832;4.346;2023-11-21T03:36:49;10.10;99.90
24338;DHT22;12457;50.832;4.346;2023-11-21T03:39:15;10.20;99.90
24338;DHT22;12457;50.832;4.346;2023-11-21T03:41:42;10.20;99.90
24338;DHT22;12457;50.832;4.346;2023-11-21T03:44:08;10.10;99.90
24338;DHT22;12457;50.832;4.346;2023-11-21T03:46:33;10.20;99.90
24338;DHT22;12457;50.832;4.346;2023-11-21T03:48:59;10.30;99.90
24338;DHT22;12457;50.832;4.346;2023-11-21T03:51:25;10.30;99.90
24338;DHT22;12457;50.832;4.346;2023-11-21T03:53:50;10.30;99.90
24338;DHT22;12457;50.832;4.346;2023-11-21T03:56:16;10.40;99.90
24338;DHT22;12457;50.832;4.346;2023-11-21T03:58:41;10.40;99.90
24338;DHT22;12457;50.832;4.346;2023-11-21T04:01:07;10.40;99.90
24338;DHT22;12457;50.832;4.346;2023-11-21T04:03:33;10.40;99.90
24338;DHT22;12457;50.832;4.346;2023-11-21T04:05:59;10.40;99.90
24338;DHT22;12457;50.832;4.346;2023-11-21T04:08:26;10.40;99.90
24338;DHT22;12457;50.832;4.346;2023-11-21T04:10:52;10.30;99.90
24338;DHT22;12457;50.832;4.346;2023-11-21T04:13:20;10.40;99.90
24338;DHT22;12457;50.832;4.346;2023-11-21T04:15:45;10.30;99.90
24338;DHT22;12457;50.832;4.346;2023-11-21T04:18:11;10.30;99.90
24338;DHT22;12457;50.832;4.346;2023-11-21T04:20:37;10.20;99.90
24338;DHT22;12457;50.832;4.346;2023-11-21T04:23:02;10.20;99.90
24338;DHT22;12457;50.832;4.346;2023-11-21T04:25:28;10.20;99.90
24338;DHT22;12457;50.832;4.346;2023-11-21T04:27:54;10.20;99.90
24338;DHT22;12457;50.832;4.346;2023-11-21T04:30:20;10.20;99.90
24338;DHT22;12457;50.832;4.346;2023-11-21T04:32:47;10.30;99.90
24338;DHT22;12457;50.832;4.346;2023-11-21T04:35:14;10.20;99.90
24338;DHT22;12457;50.832;4.346;2023-11-21T04:37:40;10.20;99.90
24338;DHT22;12457;50.832;4.346;2023-11-21T04:40:06;10.20;99.90
24338;DHT22;12457;50.832;4.346;2023-11-21T04:42:35;10.20;99.90
24338;DHT22;12457;50.832;4.346;2023-11-21T04:45:05;10.20;99.90
24338;DHT22;12457;50.832;4.346;2023-11-21T04:47:35;10.20;99.90
24338;DHT22;12457;50.832;4.346;2023-11-21T04:50:02;10.10;99.90
24338;DHT22;12457;50.832;4.346;2023-11-21T04:52:28;10.10;99.90
24338;DHT22;12457;50.832;4.346;2023-11-21T04:54:54;10.10;99.90
24338;DHT22;12457;50.832;4.346;2023-11-21T04:57:21;10.10;99.90
24338;DHT22;12457;50.832;4.346;2023-11-21T04:59:48;10.10;99.90
24338;DHT22;12457;50.832;4.346;2023-11-21T05:02:15;10.20;99.90
24338;DHT22;12457;50.832;4.346;2023-11-21T05:04:40;10.20;99.90
24338;DHT22;12457;50.832;4.346;2023-11-21T05:10:14;10.30;99.90
24338;DHT22;12457;50.832;4.346;2023-11-21T05:12:41;10.30;99.90
24338;DHT22;12457;50.832;4.346;2023-11-21T05:15:08;10.30;99.90
24338;DHT22;12457;50.832;4.346;2023-11-21T05:17:35;10.30;99.90
24338;DHT22;12457;50.832;4.346;2023-11-21T05:20:02;10.30;99.90
24338;DHT22;12457;50.832;4.346;2023-11-21T05:22:35;10.40;99.90
24338;DHT22;12457;50.832;4.346;2023-11-21T05:25:02;10.30;99.90
24338;DHT22;12457;50.832;4.346;2023-11-21T05:27:29;10.30;99.90
24338;DHT22;12457;50.832;4.346;2023-11-21T05:29:56;10.30;99.90
24338;DHT22;12457;50.832;4.346;2023-11-21T05:32:24;10.40;99.90
24338;DHT22;12457;50.832;4.346;2023-11-21T05:34:50;10.40;99.90
24338;DHT22;12457;50.832;4.346;2023-11-21T05:37:16;10.40;99.90
24338;DHT22;12457;50.832;4.346;2023-11-21T05:39:43;10.40;99.90
24338;DHT22;12457;50.832;4.346;2023-11-21T05:42:09;10.50;99.90
24338;DHT22;12457;50.832;4.346;2023-11-21T05:44:41;10.50;99.90
24338;DHT22;12457;50.832;4.346;2023-11-21T05:47:07;10.60;99.90
24338;DHT22;12457;50.832;4.346;2023-11-21T05:49:33;10.60;99.90
24338;DHT22;12457;50.832;4.346;2023-11-21T05:51:58;10.60;99.90
24338;DHT22;12457;50.832;4.346;2023-11-21T05:54:25;10.60;99.90
24338;DHT22;12457;50.832;4.346;2023-11-21T05:56:53;10.50;99.90
24338;DHT22;12457;50.832;4.346;2023-11-21T05:59:18;10.50;99.90
24338;DHT22;12457;50.832;4.346;2023-11-21T06:01:46;10.40;99.90
24338;DHT22;12457;50.832;4.346;2023-11-21T06:04:12;10.50;99.90
24338;DHT22;12457;50.832;4.346;2023-11-21T06:06:38;10.50;99.90
24338;DHT22;12457;50.832;4.346;2023-11-21T06:09:04;10.50;99.90
24338;DHT22;12457;50.832;4.346;2023-11-21T06:11:31;10.50;99.90
24338;DHT22;12457;50.832;4.346;2023-11-21T06:14:00;10.40;99.90
24338;DHT22;12457;50.832;4.346;2023-11-21T06:16:26;10.50;99.90
24338;DHT22;12457;50.832;4.346;2023-11-21T06:18:53;10.50;99.90
24338;DHT22;12457;50.832;4.346;2023-11-21T06:21:19;10.60;99.90
24338;DHT22;12457;50.832;4.346;2023-11-21T06:23:46;10.60;99.90
24338;DHT22;12457;50.832;4.346;2023-11-21T06:26:13;10.60;99.90
24338;DHT22;12457;50.832;4.346;2023-11-21T06:28:39;10.70;99.90
24338;DHT22;12457;50.832;4.346;2023-11-21T06:31:06;10.70;99.90
24338;DHT22;12457;50.832;4.346;2023-11-21T06:33:32;10.80;99.90
24338;DHT22;12457;50.832;4.346;2023-11-21T06:35:58;10.90;99.90
24338;DHT22;12457;50.832;4.346;2023-11-21T06:38:24;10.80;99.90
24338;DHT22;12457;50.832;4.346;2023-11-21T06:40:51;10.80;99.90
24338;DHT22;12457;50.832;4.346;2023-11-21T06:43:17;10.70;99.90
24338;DHT22;12457;50.832;4.346;2023-11-21T06:45:43;10.70;99.90
24338;DHT22;12457;50.832;4.346;2023-11-21T06:48:09;10.70;99.90
24338;DHT22;12457;50.832;4.346;2023-11-21T06:50:36;10.70;99.90
24338;DHT22;12457;50.832;4.346;2023-11-21T06:53:02;10.60;99.90
24338;DHT22;12457;50.832;4.346;2023-11-21T06:55:29;10.60;99.90
24338;DHT22;12457;50.832;4.346;2023-11-21T06:57:56;10.60;99.90
24338;DHT22;12457;50.832;4.346;2023-11-21T07:00:23;10.60;99.90
24338;DHT22;12457;50.832;4.346;2023-11-21T07:02:49;10.70;99.90
24338;DHT22;12457;50.832;4.346;2023-11-21T07:05:15;10.80;99.90
24338;DHT22;12457;50.832;4.346;2023-11-21T07:07:42;10.80;99.90
24338;DHT22;12457;50.832;4.346;2023-11-21T07:10:10;10.80;99.90
24338;DHT22;12457;50.832;4.346;2023-11-21T07:12:36;10.70;99.90
24338;DHT22;12457;50.832;4.346;2023-11-21T07:15:03;10.70;99.90
24338;DHT22;12457;50.832;4.346;2023-11-21T07:17:32;10.60;99.90
24338;DHT22;12457;50.832;4.346;2023-11-21T07:19:58;10.60;99.90
24338;DHT22;12457;50.832;4.346;2023-11-21T07:22:24;10.60;99.90
24338;DHT22;12457;50.832;4.346;2023-11-21T07:24:50;10.60;99.90
24338;DHT22;12457;50.832;4.346;2023-11-21T07:27:18;10.70;99.90
24338;DHT22;12457;50.832;4.346;2023-11-21T07:29:46;10.80;99.90
24338;DHT22;12457;50.832;4.346;2023-11-21T07:32:13;10.80;99.90
24338;DHT22;12457;50.832;4.346;2023-11-21T07:34:41;10.70;99.90
24338;DHT22;12457;50.832;4.346;2023-11-21T07:37:10;10.80;99.90
24338;DHT22;12457;50.832;4.346;2023-11-21T07:39:36;10.80;99.90
24338;DHT22;12457;50.832;4.346;2023-11-21T07:42:02;10.80;99.90
24338;DHT22;12457;50.832;4.346;2023-11-21T07:44:32;10.80;99.90
24338;DHT22;12457;50.832;4.346;2023-11-21T07:46:58;10.80;99.90
24338;DHT22;12457;50.832;4.346;2023-11-21T07:49:25;10.80;99.90
24338;DHT22;12457;50.832;4.346;2023-11-21T07:51:53;10.90;99.90
24338;DHT22;12457;50.832;4.346;2023-11-21T07:54:18;10.90;99.90
24338;DHT22;12457;50.832;4.346;2023-11-21T07:56:46;10.90;99.90
24338;DHT22;12457;50.832;4.346;2023-11-21T07:59:12;10.90;99.90
24338;DHT22;12457;50.832;4.346;2023-11-21T08:01:39;10.90;99.90
24338;DHT22;12457;50.832;4.346;2023-11-21T08:04:06;10.90;99.90
24338;DHT22;12457;50.832;4.346;2023-11-21T08:06:32;10.90;99.90
24338;DHT22;12457;50.832;4.346;2023-11-21T08:09:08;11.00;99.90
24338;DHT22;12457;50.832;4.346;2023-11-21T08:11:34;11.10;99.90
24338;DHT22;12457;50.832;4.346;2023-11-21T08:14:00;11.10;99.90
24338;DHT22;12457;50.832;4.346;2023-11-21T08:16:40;11.00;99.90
24338;DHT22;12457;50.832;4.346;2023-11-21T08:19:10;10.90;99.90
24338;DHT22;12457;50.832;4.346;2023-11-21T08:21:36;11.00;99.90
24338;DHT22;12457;50.832;4.346;2023-11-21T08:24:06;10.90;99.90
24338;DHT22;12457;50.832;4.346;2023-11-21T08:26:39;10.90;99.90
24338;DHT22;12457;50.832;4.346;2023-11-21T08:29:04;11.00;99.90
24338;DHT22;12457;50.832;4.346;2023-11-21T08:31:37;11.00;99.90
24338;DHT22;12457;50.832;4.346;2023-11-21T08:34:05;11.10;99.90
24338;DHT22;12457;50.832;4.346;2023-11-21T08:36:30;11.10;99.90
24338;DHT22;12457;50.832;4.346;2023-11-21T08:38:57;11.20;99.90
24338;DHT22;12457;50.832;4.346;2023-11-21T08:41:25;11.10;99.90
24338;DHT22;12457;50.832;4.346;2023-11-21T08:43:54;11.20;99.90
24338;DHT22;12457;50.832;4.346;2023-11-21T08:46:20;11.30;99.90
24338;DHT22;12457;50.832;4.346;2023-11-21T08:48:47;11.30;99.90
24338;DHT22;12457;50.832;4.346;2023-11-21T08:51:14;11.30;99.90
24338;DHT22;12457;50.832;4.346;2023-11-21T08:53:39;11.30;99.90
24338;DHT22;12457;50.832;4.346;2023-11-21T08:56:06;11.30;99.90
24338;DHT22;12457;50.832;4.346;2023-11-21T08:58:32;11.30;99.90
24338;DHT22;12457;50.832;4.346;2023-11-21T09:00:58;11.30;99.90
24338;DHT22;12457;50.832;4.346;2023-11-21T09:03:24;11.30;99.90
24338;DHT22;12457;50.832;4.346;2023-11-21T09:05:50;11.40;99.90
24338;DHT22;12457;50.832;4.346;2023-11-21T09:08:15;11.40;99.90
24338;DHT22;12457;50.832;4.346;2023-11-21T09:10:41;11.50;99.90
24338;DHT22;12457;50.832;4.346;2023-11-21T09:13:09;11.40;99.90
24338;DHT22;12457;50.832;4.346;2023-11-21T09:15:35;11.40;99.90
24338;DHT22;12457;50.832;4.346;2023-11-21T09:18:01;11.50;99.90
24338;DHT22;12457;50.832;4.346;2023-11-21T09:20:29;11.40;99.90
24338;DHT22;12457;50.832;4.346;2023-11-21T09:22:56;11.50;99.90
24338;DHT22;12457;50.832;4.346;2023-11-21T09:25:30;11.60;99.90
24338;DHT22;12457;50.832;4.346;2023-11-21T09:27:55;11.60;99.90
24338;DHT22;12457;50.832;4.346;2023-11-21T09:30:22;11.60;99.90
24338;DHT22;12457;50.832;4.346;2023-11-21T09:32:50;11.50;99.90
24338;DHT22;12457;50.832;4.346;2023-11-21T09:35:17;11.60;99.90
24338;DHT22;12457;50.832;4.346;2023-11-21T09:37:44;11.60;99.90
24338;DHT22;12457;50.832;4.346;2023-11-21T09:43:19;11.60;99.90
24338;DHT22;12457;50.832;4.346;2023-11-21T09:46:02;11.60;99.90
24338;DHT22;12457;50.832;4.346;2023-11-21T09:48:37;11.60;99.90
24338;DHT22;12457;50.832;4.346;2023-11-21T09:51:04;11.50;99.90
24338;DHT22;12457;50.832;4.346;2023-11-21T09:53:35;11.50;99.90
24338;DHT22;12457;50.832;4.346;2023-11-21T09:56:01;11.60;99.90
24338;DHT22;12457;50.832;4.346;2023-11-21T09:58:28;11.60;99.90
24338;DHT22;12457;50.832;4.346;2023-11-21T10:00:55;11.80;99.90
24338;DHT22;12457;50.832;4.346;2023-11-21T10:03:23;11.90;99.90
24338;DHT22;12457;50.832;4.346;2023-11-21T10:05:51;11.90;99.90
24338;DHT22;12457;50.832;4.346;2023-11-21T10:08:20;11.80;99.90
24338;DHT22;12457;50.832;4.346;2023-11-21T10:10:53;11.90;99.90
24338;DHT22;12457;50.832;4.346;2023-11-21T10:13:20;12.00;99.90
24338;DHT22;12457;50.832;4.346;2023-11-21T10:15:50;11.80;99.90
24338;DHT22;12457;50.832;4.346;2023-11-21T10:18:17;11.80;99.90
24338;DHT22;12457;50.832;4.346;2023-11-21T10:20:43;11.60;99.90
24338;DHT22;12457;50.832;4.346;2023-11-21T10:23:11;11.50;99.90
24338;DHT22;12457;50.832;4.346;2023-11-21T10:25:54;11.40;99.90
24338;DHT22;12457;50.832;4.346;2023-11-21T10:28:20;11.40;99.90
24338;DHT22;12457;50.832;4.346;2023-11-21T10:30:46;11.40;99.90
24338;DHT22;12457;50.832;4.346;2023-11-21T10:33:12;11.40;99.90
24338;DHT22;12457;50.832;4.346;2023-11-21T10:35:45;11.20;99.90
24338;DHT22;12457;50.832;4.346;2023-11-21T10:38:19;11.30;99.90
24338;DHT22;12457;50.832;4.346;2023-11-21T10:40:55;11.50;99.90
24338;DHT22;12457;50.832;4.346;2023-11-21T10:43:24;11.60;99.90
24338;DHT22;12457;50.832;4.346;2023-11-21T10:45:50;11.70;99.90
24338;DHT22;12457;50.832;4.346;2023-11-21T10:48:16;11.60;99.90
24338;DHT22;12457;50.832;4.346;2023-11-21T10:50:43;11.50;99.90
24338;DHT22;12457;50.832;4.346;2023-11-21T10:53:09;11.50;99.90
24338;DHT22;12457;50.832;4.346;2023-11-21T10:55:37;11.50;99.90
24338;DHT22;12457;50.832;4.346;2023-11-21T10:58:04;11.70;99.90
24338;DHT22;12457;50.832;4.346;2023-11-21T11:00:31;11.80;99.90
24338;DHT22;12457;50.832;4.346;2023-11-21T11:02:57;11.90;99.90
24338;DHT22;12457;50.832;4.346;2023-11-21T11:05:27;11.90;99.90
24338;DHT22;12457;50.832;4.346;2023-11-21T11:08:07;12.00;99.90
24338;DHT22;12457;50.832;4.346;2023-11-21T11:10:46;12.10;99.90
24338;DHT22;12457;50.832;4.346;2023-11-21T11:13:15;12.20;99.90
24338;DHT22;12457;50.832;4.346;2023-11-21T11:16:01;12.30;99.90
24338;DHT22;12457;50.832;4.346;2023-11-21T11:18:30;12.10;99.90
24338;DHT22;12457;50.832;4.346;2023-11-21T11:21:11;12.00;99.90
24338;DHT22;12457;50.832;4.346;2023-11-21T11:24:15;12.10;99.90
24338;DHT22;12457;50.832;4.346;2023-11-21T11:26:51;12.30;99.90
24338;DHT22;12457;50.832;4.346;2023-11-21T11:29:47;12.40;99.90
24338;DHT22;12457;50.832;4.346;2023-11-21T11:35:34;12.50;99.90
24338;DHT22;12457;50.832;4.346;2023-11-21T11:38:03;12.40;99.90
24338;DHT22;12457;50.832;4.346;2023-11-21T11:40:45;12.30;99.90
24338;DHT22;12457;50.832;4.346;2023-11-21T11:43:11;12.30;99.90
24338;DHT22;12457;50.832;4.346;2023-11-21T11:45:37;12.40;99.90
24338;DHT22;12457;50.832;4.346;2023-11-21T11:48:10;12.50;99.90
24338;DHT22;12457;50.832;4.346;2023-11-21T11:51:07;12.50;99.90
24338;DHT22;12457;50.832;4.346;2023-11-21T11:53:42;12.40;99.90
24338;DHT22;12457;50.832;4.346;2023-11-21T11:58:56;12.30;99.90
24338;DHT22;12457;50.832;4.346;2023-11-21T12:01:27;12.10;99.90
24338;DHT22;12457;50.832;4.346;2023-11-21T12:06:41;11.90;99.90
24338;DHT22;12457;50.832;4.346;2023-11-21T12:09:18;11.80;99.90
24338;DHT22;12457;50.832;4.346;2023-11-21T12:12:13;11.80;99.90
24338;DHT22;12457;50.832;4.346;2023-11-21T12:14:39;11.70;99.90
24338;DHT22;12457;50.832;4.346;2023-11-21T12:17:05;11.50;99.90
24338;DHT22;12457;50.832;4.346;2023-11-21T12:19:31;11.50;99.90
24338;DHT22;12457;50.832;4.346;2023-11-21T12:21:56;11.50;99.90
24338;DHT22;12457;50.832;4.346;2023-11-21T12:24:23;11.50;99.90
24338;DHT22;12457;50.832;4.346;2023-11-21T12:26:51;11.50;99.90
24338;DHT22;12457;50.832;4.346;2023-11-21T12:29:18;11.60;99.90
24338;DHT22;12457;50.832;4.346;2023-11-21T12:31:44;11.50;99.90
24338;DHT22;12457;50.832;4.346;2023-11-21T12:34:11;11.60;99.90
24338;DHT22;12457;50.832;4.346;2023-11-21T12:36:37;11.70;99.90
24338;DHT22;12457;50.832;4.346;2023-11-21T12:39:03;11.70;99.90
24338;DHT22;12457;50.832;4.346;2023-11-21T12:41:28;11.80;99.90
24338;DHT22;12457;50.832;4.346;2023-11-21T12:43:55;11.80;99.90
24338;DHT22;12457;50.832;4.346;2023-11-21T12:46:21;11.80;99.90
24338;DHT22;12457;50.832;4.346;2023-11-21T12:48:47;11.80;99.90
24338;DHT22;12457;50.832;4.346;2023-11-21T12:51:13;11.90;99.90
24338;DHT22;12457;50.832;4.346;2023-11-21T12:53:42;11.90;99.90
24338;DHT22;12457;50.832;4.346;2023-11-21T12:56:11;11.90;99.90
24338;DHT22;12457;50.832;4.346;2023-11-21T12:58:38;11.80;99.90
24338;DHT22;12457;50.832;4.346;2023-11-21T13:01:08;11.90;99.90
24338;DHT22;12457;50.832;4.346;2023-11-21T13:03:38;11.80;99.90
24338;DHT22;12457;50.832;4.346;2023-11-21T13:06:05;11.80;99.90
24338;DHT22;12457;50.832;4.346;2023-11-21T13:08:30;11.90;99.90
24338;DHT22;12457;50.832;4.346;2023-11-21T13:11:02;11.80;99.90
24338;DHT22;12457;50.832;4.346;2023-11-21T13:13:30;11.70;99.90
24338;DHT22;12457;50.832;4.346;2023-11-21T13:16:01;11.50;99.90
24338;DHT22;12457;50.832;4.346;2023-11-21T13:18:31;11.60;99.90
24338;DHT22;12457;50.832;4.346;2023-11-21T13:20:59;11.50;99.90
24338;DHT22;12457;50.832;4.346;2023-11-21T13:23:26;11.50;99.90
24338;DHT22;12457;50.832;4.346;2023-11-21T13:25:55;11.50;99.90
24338;DHT22;12457;50.832;4.346;2023-11-21T13:28:21;11.60;99.90
24338;DHT22;12457;50.832;4.346;2023-11-21T13:30:49;11.60;99.90
24338;DHT22;12457;50.832;4.346;2023-11-21T13:33:17;11.50;99.90
24338;DHT22;12457;50.832;4.346;2023-11-21T13:35:47;11.50;99.90
24338;DHT22;12457;50.832;4.346;2023-11-21T13:38:16;11.60;99.90
24338;DHT22;12457;50.832;4.346;2023-11-21T13:40:52;11.50;99.90
24338;DHT22;12457;50.832;4.346;2023-11-21T13:43:24;11.50;99.90
24338;DHT22;12457;50.832;4.346;2023-11-21T13:46:03;11.60;99.90
24338;DHT22;12457;50.832;4.346;2023-11-21T13:48:40;11.60;99.90
24338;DHT22;12457;50.832;4.346;2023-11-21T13:51:12;11.50;99.90
24338;DHT22;12457;50.832;4.346;2023-11-21T13:53:46;11.40;99.90
24338;DHT22;12457;50.832;4.346;2023-11-21T13:56:19;11.40;99.90
24338;DHT22;12457;50.832;4.346;2023-11-21T13:58:52;11.40;99.90
24338;DHT22;12457;50.832;4.346;2023-11-21T14:01:24;11.40;99.90
24338;DHT22;12457;50.832;4.346;2023-11-21T14:03:57;11.30;99.90
24338;DHT22;12457;50.832;4.346;2023-11-21T14:06:28;11.20;99.90
24338;DHT22;12457;50.832;4.346;2023-11-21T14:09:01;11.20;99.90
24338;DHT22;12457;50.832;4.346;2023-11-21T14:11:31;11.10;99.90
24338;DHT22;12457;50.832;4.346;2023-11-21T14:13:57;11.20;99.90
24338;DHT22;12457;50.832;4.346;2023-11-21T14:16:25;11.10;99.90
24338;DHT22;12457;50.832;4.346;2023-11-21T14:18:51;11.20;99.90
24338;DHT22;12457;50.832;4.346;2023-11-21T14:21:27;11.20;99.90
24338;DHT22;12457;50.832;4.346;2023-11-21T14:23:52;11.10;99.90
24338;DHT22;12457;50.832;4.346;2023-11-21T14:29:42;11.20;99.90
24338;DHT22;12457;50.832;4.346;2023-11-21T14:32:13;11.00;99.90
24338;DHT22;12457;50.832;4.346;2023-11-21T14:34:39;11.10;99.90
24338;DHT22;12457;50.832;4.346;2023-11-21T14:37:12;11.00;99.90
24338;DHT22;12457;50.832;4.346;2023-11-21T14:39:39;10.90;99.90
24338;DHT22;12457;50.832;4.346;2023-11-21T14:42:10;10.90;99.90
24338;DHT22;12457;50.832;4.346;2023-11-21T14:44:41;10.90;99.90
24338;DHT22;12457;50.832;4.346;2023-11-21T14:47:08;11.00;99.90
24338;DHT22;12457;50.832;4.346;2023-11-21T14:49:44;11.00;99.90
24338;DHT22;12457;50.832;4.346;2023-11-21T14:52:27;11.00;99.90
24338;DHT22;12457;50.832;4.346;2023-11-21T14:55:05;11.00;99.90
24338;DHT22;12457;50.832;4.346;2023-11-21T14:57:51;11.00;99.90
24338;DHT22;12457;50.832;4.346;2023-11-21T15:00:18;11.00;99.90
24338;DHT22;12457;50.832;4.346;2023-11-21T15:03:19;11.00;99.90
24338;DHT22;12457;50.832;4.346;2023-11-21T15:06:00;11.00;99.90
24338;DHT22;12457;50.832;4.346;2023-11-21T15:08:51;11.00;99.90
24338;DHT22;12457;50.832;4.346;2023-11-21T15:11:32;11.00;99.90
24338;DHT22;12457;50.832;4.346;2023-11-21T15:13:59;10.90;99.90
24338;DHT22;12457;50.832;4.346;2023-11-21T15:16:26;10.90;99.90
24338;DHT22;12457;50.832;4.346;2023-11-21T15:18:54;10.80;99.90
24338;DHT22;12457;50.832;4.346;2023-11-21T15:21:21;10.80;99.90
24338;DHT22;12457;50.832;4.346;2023-11-21T15:23:50;10.80;99.90
24338;DHT22;12457;50.832;4.346;2023-11-21T15:26:17;10.80;99.90
24338;DHT22;12457;50.832;4.346;2023-11-21T15:28:42;10.90;99.90
24338;DHT22;12457;50.832;4.346;2023-11-21T15:31:11;10.90;99.90
24338;DHT22;12457;50.832;4.346;2023-11-21T15:33:37;10.90;99.90
24338;DHT22;12457;50.832;4.346;2023-11-21T15:36:03;10.80;99.90
24338;DHT22;12457;50.832;4.346;2023-11-21T15:38:29;10.80;99.90
24338;DHT22;12457;50.832;4.346;2023-11-21T15:40:56;10.80;99.90
24338;DHT22;12457;50.832;4.346;2023-11-21T15:44:01;10.80;99.90
24338;DHT22;12457;50.832;4.346;2023-11-21T15:46:29;10.90;99.90
24338;DHT22;12457;50.832;4.346;2023-11-21T15:48:55;10.80;99.90
24338;DHT22;12457;50.832;4.346;2023-11-21T15:51:22;10.70;99.90
24338;DHT22;12457;50.832;4.346;2023-11-21T15:53:48;10.80;99.90
24338;DHT22;12457;50.832;4.346;2023-11-21T15:56:13;10.80;99.90
24338;DHT22;12457;50.832;4.346;2023-11-21T15:58:40;10.70;99.90